Kaiyo — JGBF — position and weather

sailwx.info

Track history (hours):
 
Tides and Currents Weather Stations Pressure Air Temp Water Temp Dewpoint Dewpoint Depression Visibility Wind Speed Wind Dir Waves Ship Positions

Oceanographic research ship Kaiyo (Japan)

Detailed information on ship capabilities available from University of Delaware's Ocean Information Center.

Last reported at 2017-Dec-11 05:36 UTC. Time now 2017-Dec-13 12:57 UTC.
Position N 34°40' E 136°50'.

Length 58 m; draft 3 m.

Type: Ship. MMSI: 431100049.

Date/timePositionNaut miles runAvg speedWind from/ knotsBaromVisibWave heightAir tempDewpointWater temp
2017-Dec-11 05:36N 34°40' E 136°50'212.9
2017-Dec-11 05:28N 34°42' E 136°49'812.9
2017-Dec-11 04:52N 34°49' E 136°45'412.3
2017-Dec-11 04:30N 34°53' E 136°45'3 5.2
2017-Dec-11 04:00N 34°56' E 136°44'611.3
2017-Dec-11 03:31N 34°51' E 136°41'2 3.6
2017-Dec-11 03:00N 34°49' E 136°41'3 6.6
2017-Dec-11 02:31N 34°45' E 136°41'1 2.7
2017-Dec-11 02:00N 34°44' E 136°41'1 2.8
2017-Dec-11 01:30N 34°43' E 136°41'612.3
2017-Dec-11 01:00N 34°39' E 136°47'5 9.9
2017-Dec-11 00:30N 34°36' E 136°52'56 7.8
2017-Dec-10 17:18N 34°27' E 137°59'410.8
2017-Dec-10 16:58N 34°27' E 138°04'1811.0
2017-Dec-10 15:18N 34°29' E 138°26'511.8
2017-Dec-10 14:53N 34°29' E 138°32'1711.3
2017-Dec-10 13:23N 34°30' E 138°52'411.6
2017-Dec-10 13:00N 34°30' E 138°57'611.1
2017-Dec-10 12:26N 34°33' E 139°04'510.5
2017-Dec-10 12:00N 34°35' E 139°09'510.8
2017-Dec-10 11:30N 34°36' E 139°16'611.2
2017-Dec-10 11:00N 34°37' E 139°22'611.1
2017-Dec-10 10:29N 34°37' E 139°29'22 8.5
2017-Dec-10 07:51N 34°57' E 139°42'512.7
2017-Dec-10 07:30N 35°01' E 139°44'510.8
2017-Dec-10 07:00N 35°06' E 139°47'0 0.3
2017-Dec-10 06:30N 35°06' E 139°47'0 0.5
2017-Dec-10 06:01N 35°06' E 139°48'3 6.0
2017-Dec-10 05:30N 35°09' E 139°46'4 8.6
2017-Dec-10 05:00N 35°13' E 139°46'2 3.0
2017-Dec-10 04:30N 35°15' E 139°45'4 7.8
2017-Dec-10 04:00N 35°18' E 139°43'2 3.7
2017-Dec-10 03:30N 35°20' E 139°42'4 7.1
2017-Dec-10 03:00N 35°23' E 139°44'5 9.1
2017-Dec-10 02:31N 35°27' E 139°47'612.4
2017-Dec-10 02:00N 35°31' E 139°52'4 6.6
2017-Dec-10 01:27N 35°35' E 139°53'1 2.1
2017-Dec-10 01:00N 35°35' E 139°52'4 8.4
2017-Dec-10 00:29N 35°36' E 139°47'  
Track history (hours):
 
Tides and Currents Weather Stations Pressure Air Temp Water Temp Dewpoint Dewpoint Depression Visibility Wind Speed Wind Dir Waves Ship Positions

Oceanographic research ship Kaiyo (Japan)

Detailed information on ship capabilities available from University of Delaware's Ocean Information Center.

Last reported at 2017-Dec-11 05:36 UTC. Time now 2017-Dec-13 12:57 UTC.
Position N 34°40' E 136°50'.

Length 58 m; draft 3 m.

Type: Ship. MMSI: 431100049.

Date/timePositionNaut miles runAvg speedWind from/ knotsBaromVisibWave heightAir tempDewpointWater temp
2017-Dec-11 05:36N 34°40' E 136°50'212.9
2017-Dec-11 05:28N 34°42' E 136°49'812.9
2017-Dec-11 04:52N 34°49' E 136°45'412.3
2017-Dec-11 04:30N 34°53' E 136°45'3 5.2
2017-Dec-11 04:00N 34°56' E 136°44'611.3
2017-Dec-11 03:31N 34°51' E 136°41'2 3.6
2017-Dec-11 03:00N 34°49' E 136°41'3 6.6
2017-Dec-11 02:31N 34°45' E 136°41'1 2.7
2017-Dec-11 02:00N 34°44' E 136°41'1 2.8
2017-Dec-11 01:30N 34°43' E 136°41'612.3
2017-Dec-11 01:00N 34°39' E 136°47'5 9.9
2017-Dec-11 00:30N 34°36' E 136°52'56 7.8
2017-Dec-10 17:18N 34°27' E 137°59'410.8
2017-Dec-10 16:58N 34°27' E 138°04'1811.0
2017-Dec-10 15:18N 34°29' E 138°26'511.8
2017-Dec-10 14:53N 34°29' E 138°32'1711.3
2017-Dec-10 13:23N 34°30' E 138°52'411.6
2017-Dec-10 13:00N 34°30' E 138°57'611.1
2017-Dec-10 12:26N 34°33' E 139°04'510.5
2017-Dec-10 12:00N 34°35' E 139°09'510.8
2017-Dec-10 11:30N 34°36' E 139°16'611.2
2017-Dec-10 11:00N 34°37' E 139°22'611.1
2017-Dec-10 10:29N 34°37' E 139°29'22 8.5
2017-Dec-10 07:51N 34°57' E 139°42'512.7
2017-Dec-10 07:30N 35°01' E 139°44'510.8
2017-Dec-10 07:00N 35°06' E 139°47'0 0.3
2017-Dec-10 06:30N 35°06' E 139°47'0 0.5
2017-Dec-10 06:01N 35°06' E 139°48'3 6.0
2017-Dec-10 05:30N 35°09' E 139°46'4 8.6
2017-Dec-10 05:00N 35°13' E 139°46'2 3.0
2017-Dec-10 04:30N 35°15' E 139°45'4 7.8
2017-Dec-10 04:00N 35°18' E 139°43'2 3.7
2017-Dec-10 03:30N 35°20' E 139°42'4 7.1
2017-Dec-10 03:00N 35°23' E 139°44'5 9.1
2017-Dec-10 02:31N 35°27' E 139°47'612.4
2017-Dec-10 02:00N 35°31' E 139°52'4 6.6
2017-Dec-10 01:27N 35°35' E 139°53'1 2.1
2017-Dec-10 01:00N 35°35' E 139°52'4 8.4
2017-Dec-10 00:29N 35°36' E 139°47'  

Dump ship's entire track history